createdAt,value
2023-02-19T00:04:21.038Z,20.40
2023-02-19T00:09:27.586Z,20.40
2023-02-19T00:14:33.134Z,20.40
2023-02-19T00:19:38.402Z,20.40
2023-02-19T00:24:43.916Z,20.30
2023-02-19T00:29:49.513Z,20.30
2023-02-19T00:34:55.081Z,20.40
2023-02-19T00:40:00.998Z,20.20
2023-02-19T00:45:06.699Z,20.20
2023-02-19T00:50:12.783Z,20.30
2023-02-19T00:55:19.452Z,20.50
2023-02-19T01:00:25.261Z,20.50
2023-02-19T01:05:31.191Z,20.70
2023-02-19T01:10:36.677Z,20.70
2023-02-19T01:15:42.401Z,20.70
2023-02-19T01:20:48.472Z,20.60
2023-02-19T01:25:53.799Z,20.70
2023-02-19T01:31:08.971Z,21.00
2023-02-19T01:36:14.760Z,21.10
2023-02-19T01:41:25.670Z,21.10
2023-02-19T01:46:35.838Z,21.10
2023-02-19T01:51:46.858Z,21.10
2023-02-19T01:56:53.918Z,21.10
2023-02-19T02:02:00.694Z,21.10
2023-02-19T02:07:31.146Z,21.20
2023-02-19T02:12:36.772Z,21.40
2023-02-19T02:18:09.686Z,21.70
2023-02-19T02:23:33.661Z,22.10
2023-02-19T02:29:11.725Z,22.40
2023-02-19T02:34:24.569Z,22.60
2023-02-19T02:39:32.418Z,22.70
2023-02-19T02:44:40.028Z,23.00
2023-02-19T02:50:05.105Z,23.20
2023-02-19T02:55:14.373Z,23.30
2023-02-19T03:00:20.387Z,23.40
2023-02-19T03:05:46.785Z,23.40
2023-02-19T03:10:59.017Z,23.40
2023-02-19T03:16:42.476Z,23.30
2023-02-19T03:22:13.218Z,23.20
2023-02-19T03:27:21.613Z,23.20
2023-02-19T03:32:47.067Z,23.10
2023-02-19T03:38:25.578Z,22.90
2023-02-19T03:43:52.575Z,22.80
2023-02-19T03:49:06.480Z,22.60
2023-02-19T03:54:24.413Z,22.60
2023-02-19T03:59:49.506Z,22.60
2023-02-19T04:05:42.158Z,22.50
2023-02-19T04:10:57.166Z,22.40
2023-02-19T04:16:14.433Z,22.40
2023-02-19T04:21:22.571Z,22.40
2023-02-19T04:26:31.044Z,22.50
2023-02-19T04:31:37.268Z,22.50
2023-02-19T04:36:42.915Z,22.60
2023-02-19T04:41:48.457Z,22.90
2023-02-19T04:46:54.576Z,23.00
2023-02-19T04:52:00.242Z,23.00
2023-02-19T04:57:06.231Z,23.10
2023-02-19T05:02:11.773Z,23.10
2023-02-19T05:07:17.966Z,23.30
2023-02-19T05:12:24.245Z,23.30
2023-02-19T05:17:29.217Z,23.30
2023-02-19T05:22:34.906Z,23.60
2023-02-19T05:40:30.778Z,23.80
2023-02-19T05:45:36.825Z,23.70
2023-02-19T05:50:43.321Z,23.50
2023-02-19T05:55:51.670Z,23.50
2023-02-19T06:00:58.365Z,24.10
2023-02-19T06:06:06.589Z,24.50
2023-02-19T06:11:13.270Z,24.90
2023-02-19T06:16:19.562Z,25.10
2023-02-19T06:21:25.864Z,25.20
2023-02-19T06:26:31.747Z,25.20
2023-02-19T06:31:37.726Z,25.10
2023-02-19T06:36:43.465Z,25.20
2023-02-19T06:41:49.202Z,25.10
2023-02-19T06:46:57.052Z,25.20
2023-02-19T06:52:03.538Z,25.50
2023-02-19T06:57:08.515Z,25.70
2023-02-19T07:02:15.301Z,25.40
2023-02-19T07:07:21.397Z,25.20
2023-02-19T07:12:26.685Z,24.80
2023-02-19T07:17:32.105Z,24.70
2023-02-19T07:22:37.815Z,24.80
2023-02-19T07:27:44.800Z,24.70
2023-02-19T07:32:50.800Z,24.60
2023-02-19T07:37:59.716Z,24.60
2023-02-19T07:43:08.904Z,24.40
2023-02-19T07:48:14.912Z,24.30
2023-02-19T07:53:20.731Z,24.30
2023-02-19T07:58:26.023Z,24.30
2023-02-19T08:03:31.487Z,24.10
2023-02-19T08:08:37.221Z,24.20
2023-02-19T08:13:42.864Z,24.40
2023-02-19T08:18:52.126Z,24.20
2023-02-19T08:23:57.554Z,23.90
2023-02-19T08:29:03.358Z,23.60
2023-02-19T08:34:18.315Z,23.50
2023-02-19T08:39:24.388Z,23.50
2023-02-19T08:44:29.480Z,23.60
2023-02-19T08:49:35.836Z,23.90
2023-02-19T08:54:41.452Z,24.00
2023-02-19T08:59:47.578Z,23.90
2023-02-19T09:04:53.542Z,23.70
2023-02-19T09:10:04.467Z,23.40
2023-02-19T09:15:14.340Z,23.30
2023-02-19T09:20:19.965Z,23.30
2023-02-19T09:25:25.506Z,23.20
2023-02-19T09:30:31.506Z,23.10
2023-02-19T09:35:40.205Z,22.90
2023-02-19T09:40:46.212Z,22.80
2023-02-19T09:45:57.273Z,22.50
2023-02-19T09:51:04.613Z,22.30
2023-02-19T09:56:10.876Z,22.10
2023-02-19T10:01:17.368Z,21.50
2023-02-19T10:06:26.376Z,21.00
2023-02-19T10:11:32.721Z,20.50
2023-02-19T10:16:42.154Z,20.30
2023-02-19T10:21:48.000Z,20.20
2023-02-19T10:26:53.823Z,20.20
2023-02-19T10:32:25.293Z,20.20
2023-02-19T10:37:35.344Z,20.30
2023-02-19T10:42:54.058Z,20.50
2023-02-19T10:48:00.132Z,21.10
2023-02-19T10:53:06.685Z,21.20
2023-02-19T10:58:44.032Z,21.10
2023-02-19T11:04:06.959Z,21.00
2023-02-19T11:09:37.871Z,21.10
2023-02-19T11:14:50.711Z,20.90
2023-02-19T11:19:59.590Z,20.80
2023-02-19T11:25:10.107Z,20.70
2023-02-19T11:30:37.763Z,20.70
2023-02-19T11:35:43.833Z,20.70
2023-02-19T11:40:55.485Z,20.70
2023-02-19T11:46:20.091Z,20.80
2023-02-19T11:51:25.903Z,20.60
2023-02-19T11:56:39.026Z,20.70
2023-02-19T12:01:45.525Z,20.70
2023-02-19T12:07:13.795Z,20.70
2023-02-19T12:12:31.275Z,20.80
2023-02-19T12:18:24.945Z,20.70
2023-02-19T12:24:39.065Z,20.60
2023-02-19T12:30:04.598Z,20.50
2023-02-19T12:35:42.371Z,20.50
2023-02-19T12:40:52.833Z,20.50
2023-02-19T12:46:30.553Z,20.50
2023-02-19T12:52:07.070Z,20.50
2023-02-19T12:57:35.121Z,20.40
2023-02-19T13:03:15.340Z,20.40
2023-02-19T13:09:05.901Z,20.50
2023-02-19T13:14:40.203Z,20.50
2023-02-19T13:20:22.754Z,20.60
2023-02-19T13:26:06.681Z,20.40
2023-02-19T13:32:04.393Z,20.50
2023-02-19T13:37:22.194Z,20.60
2023-02-19T13:42:43.736Z,20.50
2023-02-19T13:48:24.186Z,20.40
2023-02-19T13:53:58.956Z,20.50
2023-02-19T13:59:45.373Z,20.40
2023-02-19T14:05:00.237Z,20.40
2023-02-19T14:10:24.386Z,20.40
2023-02-19T14:16:00.515Z,20.40
2023-02-19T14:21:25.597Z,20.50
2023-02-19T14:26:51.732Z,20.40
2023-02-19T14:32:15.250Z,20.30
2023-02-19T14:37:30.901Z,20.40
2023-02-19T14:42:42.361Z,20.40
2023-02-19T14:48:09.759Z,20.40
2023-02-19T14:53:28.754Z,20.20
2023-02-19T14:58:42.182Z,20.30
2023-02-19T15:03:54.522Z,20.10
2023-02-19T15:09:17.798Z,20.20
2023-02-19T15:14:36.405Z,20.40
2023-02-19T15:19:55.282Z,20.30
2023-02-19T15:25:19.060Z,20.40
2023-02-19T15:30:32.136Z,20.60
2023-02-19T15:35:43.063Z,20.40
2023-02-19T15:40:59.677Z,20.30
2023-02-19T15:46:18.222Z,20.30
2023-02-19T15:51:31.159Z,20.20
2023-02-19T15:56:41.696Z,20.20
2023-02-19T16:01:49.770Z,20.20
2023-02-19T16:07:06.082Z,20.20
2023-02-19T16:12:25.996Z,20.20
2023-02-19T16:17:31.945Z,20.30
2023-02-19T16:22:44.467Z,20.20
2023-02-19T16:27:50.878Z,20.10
2023-02-19T16:33:14.468Z,20.10
2023-02-19T16:38:22.796Z,20.10
2023-02-19T16:43:33.007Z,20.00
2023-02-19T16:48:39.000Z,19.90
2023-02-19T16:53:45.039Z,19.80
2023-02-19T16:58:52.063Z,19.80
2023-02-19T17:04:05.009Z,19.80
2023-02-19T17:09:11.944Z,19.80
2023-02-19T17:14:21.861Z,19.80
2023-02-19T17:19:28.525Z,19.90
2023-02-19T17:24:34.832Z,19.80
2023-02-19T17:29:44.872Z,19.70
2023-02-19T17:34:52.389Z,19.80
2023-02-19T17:39:59.141Z,19.80
2023-02-19T17:45:05.712Z,20.00
2023-02-19T17:50:16.421Z,20.10
2023-02-19T17:55:22.831Z,19.80
2023-02-19T18:00:31.678Z,19.70
2023-02-19T18:05:37.882Z,19.90
2023-02-19T18:10:43.669Z,19.90
2023-02-19T18:15:49.692Z,19.90
2023-02-19T18:20:56.173Z,19.90
2023-02-19T18:26:01.875Z,20.10
2023-02-19T18:31:09.115Z,20.00
2023-02-19T18:36:15.673Z,20.10
2023-02-19T18:41:22.310Z,20.20
2023-02-19T18:46:29.411Z,20.20
2023-02-19T18:51:36.436Z,20.30
2023-02-19T18:56:46.822Z,20.20
2023-02-19T19:01:53.641Z,20.30
2023-02-19T19:06:59.850Z,19.90
2023-02-19T19:12:06.424Z,20.10
2023-02-19T19:17:12.659Z,20.20
2023-02-19T19:22:24.144Z,20.10
2023-02-19T19:27:29.960Z,20.10
2023-02-19T19:32:35.615Z,20.10
2023-02-19T19:37:42.186Z,20.20
2023-02-19T19:42:48.871Z,20.20
2023-02-19T19:47:56.211Z,20.20
2023-02-19T19:53:02.463Z,20.10
2023-02-19T19:58:08.207Z,20.20
2023-02-19T20:03:15.615Z,20.10
2023-02-19T20:08:22.177Z,20.20
2023-02-19T20:13:30.246Z,20.00
2023-02-19T20:18:37.411Z,20.10
2023-02-19T20:23:43.480Z,20.10
2023-02-19T20:28:49.021Z,20.20
2023-02-19T20:33:56.190Z,20.10
2023-02-19T20:39:02.614Z,20.20
2023-02-19T20:44:08.667Z,20.20
2023-02-19T20:49:14.590Z,20.50
2023-02-19T20:54:22.462Z,20.40
2023-02-19T20:59:32.310Z,20.20
2023-02-19T21:04:42.282Z,20.10
2023-02-19T21:09:48.760Z,20.20
2023-02-19T21:14:55.070Z,20.40
2023-02-19T21:20:00.959Z,20.30
2023-02-19T21:25:07.221Z,20.50
2023-02-19T21:30:13.696Z,20.50
2023-02-19T21:35:19.685Z,20.40
2023-02-19T21:40:27.065Z,20.40
2023-02-19T21:45:32.846Z,20.40
2023-02-19T21:50:38.583Z,20.20
2023-02-19T21:55:57.513Z,20.10
2023-02-19T22:01:04.752Z,19.90
2023-02-19T22:06:11.076Z,19.90
2023-02-19T22:11:17.424Z,19.80
2023-02-19T22:16:23.079Z,19.80
2023-02-19T22:21:36.111Z,19.80
2023-02-19T22:26:42.287Z,19.90
2023-02-19T22:31:48.419Z,19.80
2023-02-19T22:36:56.403Z,19.80
2023-02-19T22:42:02.664Z,19.90
2023-02-19T22:47:08.420Z,19.80
2023-02-19T22:52:15.250Z,19.80
2023-02-19T22:57:24.296Z,19.70
2023-02-19T23:02:30.563Z,19.60
2023-02-19T23:07:36.696Z,19.60
2023-02-19T23:12:42.535Z,19.40
2023-02-19T23:17:48.934Z,19.50
2023-02-19T23:22:55.671Z,19.40
2023-02-19T23:28:01.646Z,19.40
2023-02-19T23:33:07.729Z,19.40
2023-02-19T23:38:13.320Z,19.40
2023-02-19T23:43:19.720Z,19.50
2023-02-19T23:48:25.785Z,19.60
2023-02-19T23:53:31.835Z,19.60
2023-02-19T23:58:37.762Z,19.60
